Pagrindinis puslapis
METAR-TAF:

METAR-TAF

Oro uostai :

Clovis, Naujoji Meksika, Jungtinės Amerikos Valstijos

platuma: 34-26N, ilguma: 103-05W, Aukštis: 1284 m

Dabartinis oras

Ataskaita buvo paskelbta 1 valandą ir 2 minutes, ne 07:56 UTC
Vėjas 16 kt iš Pietų/Pietryčių
Temperatūra 21°C
Drėgmė 64%
Slėgis 1016 hPa
Matomumas: 14.5 km
Giedras dangus

METAR: KCVN 050756Z AUTO 16016KT 9SM CLR 21/14 A3000 RMK AO2 SLP105 T02060144

Laikas: 02:58 (08:58 UTC)


TAF: trūkstamas

Orai ataskaitas ir orų prognozės (METAR, TAF).

turimą stotys yra geltonos ir raudonos taškus žemėlapyje.

Perkelti pele per norėdami pamatyti stoties vardą.

Tada spustelėkite, norėdami matyti oro stebėjimo ir prognozės.

Norėdami pakeisti žemėlapį: spustelėkite ant žalios mygtukų su juodo kryžiaus žemyn,; žalią mygtuką su brūkšneliu, jei norite nutolinti; arba žalių rodyklių gretimoms žemėlapius.


METAR-TAF: